Time;durP1;ratioP1;P1;durP2;ratioP2;P2;SDS_P1;SDS_P2;PMS_P1;PMS_P2;Temp;Humidity;BMP_temperature;BMP_pressure;BME280_temperature;BME280_humidity;BME280_pressure;Samples;Min_cycle;Max_cycle;Signal;HPM_P1;HPM_P2
2022/03/23 00:04:55;;;;;;;16.90;6.63;;;9.10;99.90;;;;;;20783929;28;20047;-48
2022/03/23 00:14:56;;;;;;;15.05;6.53;;;9.00;99.90;;;;;;20782555;28;20056;-49
2022/03/23 00:24:57;;;;;;;14.90;5.72;;;8.90;99.90;;;;;;20781432;28;20049;-48
2022/03/23 00:34:58;;;;;;;17.67;7.13;;;8.70;99.90;;;;;;20777502;28;20042;-55
2022/03/23 00:45:00;;;;;;;19.92;7.30;;;8.60;99.90;;;;;;20780944;28;20045;-49
2022/03/23 00:55:01;;;;;;;13.82;6.50;;;8.40;99.90;;;;;;20778524;28;20273;-48
2022/03/23 01:05:03;;;;;;;17.33;6.57;;;8.30;99.90;;;;;;20781709;28;20063;-48
2022/03/23 01:15:05;;;;;;;16.42;6.95;;;8.20;99.90;;;;;;20780006;28;20519;-48
2022/03/23 01:25:08;;;;;;;13.05;5.32;;;8.20;99.90;;;;;;20779137;28;20041;-48
2022/03/23 01:35:10;;;;;;;19.25;6.97;;;8.00;99.90;;;;;;20780383;28;20057;-48
2022/03/23 01:45:12;;;;;;;14.65;6.45;;;7.90;99.90;;;;;;20789387;28;20046;-49
2022/03/23 01:55:20;;;;;;;21.13;7.72;;;7.80;99.90;;;;;;20787971;28;20033;-48
2022/03/23 02:05:21;;;;;;;16.77;7.32;;;7.60;99.90;;;;;;20794640;28;20040;-48
2022/03/23 02:15:25;;;;;;;14.57;6.07;;;7.60;99.90;;;;;;20788536;28;20050;-48
2022/03/23 02:25:28;;;;;;;18.08;7.88;;;7.50;99.90;;;;;;20790780;28;20040;-49
2022/03/23 02:35:29;;;;;;;14.95;6.32;;;7.20;99.90;;;;;;20784435;28;20044;-49
2022/03/23 02:45:30;;;;;;;19.50;6.97;;;7.10;99.90;;;;;;20785296;28;20034;-48
2022/03/23 03:05:51;;;;;;;13.25;5.47;;;7.10;99.90;;;;;;20777483;28;20502;-49
2022/03/23 03:15:52;;;;;;;15.98;6.32;;;7.00;99.90;;;;;;20742555;28;20053;-48
2022/03/23 03:25:53;;;;;;;13.73;5.72;;;6.90;99.90;;;;;;20743658;28;20498;-49
2022/03/23 03:35:54;;;;;;;15.85;5.95;;;6.80;99.90;;;;;;20740466;28;20056;-50
2022/03/23 03:45:55;;;;;;;17.27;7.60;;;6.70;99.90;;;;;;20742643;28;20056;-48
2022/03/23 03:55:57;;;;;;;17.48;5.22;;;6.60;99.90;;;;;;20740136;28;20054;-48
2022/03/23 04:05:58;;;;;;;16.13;6.80;;;6.60;99.90;;;;;;20736765;28;20038;-49
2022/03/23 04:15:59;;;;;;;17.17;6.35;;;6.50;99.90;;;;;;20820504;28;20382;-48
2022/03/23 04:26:00;;;;;;;17.88;6.30;;;6.40;99.90;;;;;;20815209;28;20412;-48
2022/03/23 04:36:03;;;;;;;14.68;6.47;;;6.20;99.90;;;;;;20815453;28;20053;-48
2022/03/23 04:46:05;;;;;;;17.30;6.55;;;6.00;99.90;;;;;;20815163;28;20048;-48
2022/03/23 04:56:07;;;;;;;18.52;6.55;;;5.80;99.90;;;;;;20814399;28;20041;-48
2022/03/23 05:06:08;;;;;;;14.80;6.07;;;5.70;99.90;;;;;;20813667;28;20506;-48
2022/03/23 05:16:10;;;;;;;19.40;6.70;;;5.80;99.90;;;;;;20817293;28;20049;-48
2022/03/23 05:26:11;;;;;;;14.60;6.25;;;5.70;99.90;;;;;;20820770;28;20038;-48
2022/03/23 05:36:12;;;;;;;19.88;6.38;;;5.70;99.90;;;;;;20819935;28;20048;-49
2022/03/23 05:46:13;;;;;;;18.58;7.07;;;5.50;99.90;;;;;;20818780;28;20033;-48
2022/03/23 05:56:14;;;;;;;17.20;6.45;;;5.50;99.90;;;;;;20818186;28;20049;-48
2022/03/23 06:06:16;;;;;;;19.10;6.97;;;5.50;99.90;;;;;;20822267;28;20428;-48
2022/03/23 06:16:17;;;;;;;20.02;6.07;;;5.40;99.90;;;;;;20824976;28;20469;-48
2022/03/23 06:26:18;;;;;;;19.60;7.25;;;5.40;99.90;;;;;;20822359;28;20045;-48
2022/03/23 06:36:23;;;;;;;17.98;7.55;;;5.40;99.90;;;;;;20822653;28;20136;-48
2022/03/23 06:46:25;;;;;;;23.58;9.23;;;5.50;99.90;;;;;;20822943;28;20037;-49
2022/03/23 06:56:26;;;;;;;16.65;7.45;;;5.70;99.90;;;;;;20821766;28;20628;-48
2022/03/23 07:06:27;;;;;;;18.45;7.45;;;6.00;99.90;;;;;;20822294;28;20378;-48
2022/03/23 07:16:28;;;;;;;13.27;7.32;;;6.50;99.90;;;;;;20824952;28;20059;-48
2022/03/23 07:26:29;;;;;;;18.27;6.63;;;7.10;99.90;;;;;;20822420;28;20044;-48
2022/03/23 07:36:30;;;;;;;20.02;6.93;;;7.70;99.90;;;;;;20822556;28;20049;-48
2022/03/23 07:46:31;;;;;;;19.27;6.50;;;8.30;99.90;;;;;;20820656;28;20042;-48
2022/03/23 07:56:34;;;;;;;13.80;6.53;;;8.70;99.90;;;;;;20820864;28;20042;-51
2022/03/23 08:06:35;;;;;;;18.02;8.18;;;9.20;99.90;;;;;;20815969;28;20044;-48
2022/03/23 08:16:36;;;;;;;19.63;6.43;;;9.70;99.90;;;;;;20810136;28;20649;-48
2022/03/23 08:26:38;;;;;;;15.13;6.93;;;10.30;99.90;;;;;;20809176;28;20045;-48
2022/03/23 08:36:39;;;;;;;16.65;7.80;;;10.80;99.90;;;;;;20766423;28;20037;-48
2022/03/23 08:46:41;;;;;;;18.75;7.95;;;11.30;99.90;;;;;;20796295;28;20485;-48
2022/03/23 08:56:42;;;;;;;19.17;6.30;;;11.80;99.90;;;;;;20816149;28;20045;-49
2022/03/23 09:06:44;;;;;;;17.33;6.95;;;12.20;99.90;;;;;;20819609;28;20068;-48
2022/03/23 09:16:45;;;;;;;16.60;7.07;;;12.80;99.90;;;;;;20816860;28;20042;-49
2022/03/23 09:26:47;;;;;;;18.25;7.05;;;13.20;99.90;;;;;;20818181;28;20489;-49
2022/03/23 09:47:09;;;;;;;18.92;6.32;;;14.20;99.10;;;;;;20809634;28;20059;-49
2022/03/23 09:57:10;;;;;;;18.15;7.93;;;14.40;98.10;;;;;;20795494;28;20049;-49
2022/03/23 10:07:19;;;;;;;17.30;7.00;;;14.60;98.10;;;;;;20811894;28;20057;-49
2022/03/23 10:17:44;;;;;;;15.40;6.60;;;15.10;96.20;;;;;;20818354;28;20041;-49
2022/03/23 10:27:47;;;;;;;17.27;7.07;;;15.80;94.40;;;;;;20816825;28;20046;-48
2022/03/23 10:37:48;;;;;;;12.40;5.03;;;16.20;94.10;;;;;;20813427;28;20037;-49
2022/03/23 10:47:50;;;;;;;10.80;4.63;;;16.90;87.20;;;;;;20809182;28;20076;-49
2022/03/23 10:57:51;;;;;;;14.02;5.13;;;17.60;80.00;;;;;;20814251;28;20512;-50
2022/03/23 11:08:08;;;;;;;11.45;5.00;;;18.40;73.70;;;;;;20803472;28;20054;-50
2022/03/23 11:18:11;;;;;;;15.00;5.57;;;18.80;71.30;;;;;;20805717;28;20046;-49
2022/03/23 11:28:14;;;;;;;11.45;5.30;;;19.40;73.70;;;;;;20815146;28;20537;-49
2022/03/23 11:38:26;;;;;;;10.55;5.28;;;20.20;69.50;;;;;;20806609;28;20055;-50
2022/03/23 11:48:58;;;;;;;12.23;5.70;;;20.60;66.30;;;;;;20810480;28;20060;-49
2022/03/23 11:59:23;;;;;;;15.50;6.90;;;20.80;64.50;;;;;;20813362;28;20450;-50
2022/03/23 12:09:40;;;;;;;15.00;7.45;;;20.70;64.30;;;;;;20808650;28;20053;-49
2022/03/23 12:19:51;;;;;;;13.27;6.70;;;21.20;66.60;;;;;;20800306;28;20048;-49
2022/03/23 12:29:56;;;;;;;16.15;7.57;;;21.60;62.30;;;;;;20804464;28;20295;-49
2022/03/23 12:40:07;;;;;;;13.65;6.18;;;21.70;62.10;;;;;;20814396;28;20042;-49
2022/03/23 13:00:42;;;;;;;12.07;5.97;;;22.20;61.40;;;;;;20810622;28;20051;-49
2022/03/23 13:10:58;;;;;;;13.93;5.72;;;22.30;57.70;;;;;;20810687;28;20049;-49
2022/03/23 13:20:59;;;;;;;11.75;5.85;;;22.20;58.20;;;;;;20792998;28;20065;-51
2022/03/23 13:31:02;;;;;;;11.63;5.47;;;22.50;60.60;;;;;;20791336;28;20037;-50
2022/03/23 13:51:37;;;;;;;17.98;7.95;;;23.90;55.60;;;;;;20797851;28;20045;-49
2022/03/23 14:01:44;;;;;;;11.15;6.20;;;24.00;56.70;;;;;;20783755;28;20488;-49
2022/03/23 14:11:50;;;;;;;13.40;6.00;;;24.20;55.30;;;;;;20798219;28;20500;-49
2022/03/23 14:21:54;;;;;;;16.40;7.00;;;23.90;54.90;;;;;;20781454;28;20496;-49
2022/03/23 14:31:55;;;;;;;15.98;6.88;;;23.70;54.50;;;;;;20784124;28;20049;-48
2022/03/23 14:41:58;;;;;;;15.20;6.50;;;22.90;53.60;;;;;;20804612;28;20401;-49
2022/03/23 14:51:59;;;;;;;13.20;6.70;;;22.20;56.50;;;;;;20792661;28;20498;-49
2022/03/23 15:02:00;;;;;;;13.80;6.57;;;21.70;56.70;;;;;;20809042;28;20185;-49
2022/03/23 15:22:23;;;;;;;10.20;4.80;;;20.00;61.30;;;;;;20804066;28;20044;-49
2022/03/23 15:32:24;;;;;;;9.00;4.65;;;20.10;66.20;;;;;;20799477;28;20065;-50
2022/03/23 15:52:45;;;;;;;11.20;4.03;;;19.10;69.10;;;;;;20801456;28;20052;-49
2022/03/23 16:02:47;;;;;;;10.73;4.45;;;18.80;69.10;;;;;;20809788;28;20329;-49
2022/03/23 16:12:48;;;;;;;12.73;4.28;;;18.60;70.70;;;;;;20792591;28;20063;-49
2022/03/23 16:22:50;;;;;;;12.40;4.45;;;18.60;70.00;;;;;;20805349;28;20065;-48
2022/03/23 16:32:55;;;;;;;10.98;3.65;;;18.20;71.80;;;;;;20801200;28;20072;-48
2022/03/23 16:42:57;;;;;;;14.43;3.72;;;18.00;74.20;;;;;;20810772;28;20520;-49
2022/03/23 16:52:59;;;;;;;13.85;5.60;;;17.60;75.40;;;;;;20817079;28;20116;-49
2022/03/23 17:13:20;;;;;;;11.70;4.68;;;17.00;76.50;;;;;;20776024;28;20056;-49
2022/03/23 17:23:24;;;;;;;18.13;5.47;;;16.90;78.60;;;;;;20824804;28;20515;-49
2022/03/23 17:33:26;;;;;;;12.90;4.40;;;16.60;79.60;;;;;;20809025;28;20053;-48
2022/03/23 17:43:28;;;;;;;18.98;4.75;;;16.30;79.90;;;;;;20813226;28;20037;-48
2022/03/23 17:53:29;;;;;;;12.40;4.13;;;16.00;81.20;;;;;;20795131;28;20038;-49
2022/03/23 18:03:33;;;;;;;13.25;5.57;;;15.80;81.40;;;;;;20799611;28;20030;-49
2022/03/23 18:13:34;;;;;;;13.23;4.63;;;15.50;83.50;;;;;;20790505;28;20068;-48
2022/03/23 18:23:35;;;;;;;13.43;5.90;;;15.10;86.80;;;;;;20786885;28;20037;-48
2022/03/23 18:33:36;;;;;;;12.80;4.85;;;14.90;90.30;;;;;;20793713;28;20048;-48
2022/03/23 18:43:37;;;;;;;16.77;6.25;;;14.50;91.20;;;;;;20776288;28;20038;-48
2022/03/23 18:53:39;;;;;;;16.83;5.63;;;14.10;92.70;;;;;;20791256;28;20041;-48
2022/03/23 19:03:41;;;;;;;13.15;6.82;;;13.80;94.20;;;;;;20789615;28;20080;-48
2022/03/23 19:13:44;;;;;;;14.25;6.05;;;13.50;95.50;;;;;;20790855;28;20030;-48
2022/03/23 19:23:45;;;;;;;20.88;6.70;;;13.20;96.30;;;;;;20775926;28;20038;-48
2022/03/23 19:33:47;;;;;;;13.25;5.57;;;13.10;98.10;;;;;;20783739;28;22630;-48
2022/03/23 19:43:48;;;;;;;18.08;5.93;;;12.90;99.20;;;;;;20779599;28;20052;-48
2022/03/23 19:53:49;;;;;;;12.70;5.18;;;12.60;99.90;;;;;;20772403;28;20041;-48
2022/03/23 20:03:52;;;;;;;13.05;5.85;;;12.40;99.90;;;;;;20789862;28;20056;-47
2022/03/23 20:13:53;;;;;;;17.35;5.80;;;12.30;99.90;;;;;;20794217;28;20124;-48
2022/03/23 20:23:55;;;;;;;20.05;7.05;;;12.20;99.90;;;;;;20781466;28;20049;-48
2022/03/23 20:33:59;;;;;;;20.50;7.50;;;11.90;99.90;;;;;;20788997;28;20099;-48
2022/03/23 20:44:02;;;;;;;22.67;7.57;;;11.70;99.90;;;;;;20791167;28;20045;-47
2022/03/23 20:54:04;;;;;;;17.92;6.88;;;11.60;99.90;;;;;;20795451;28;20589;-49
2022/03/23 21:04:05;;;;;;;21.63;8.45;;;11.20;99.90;;;;;;20797156;28;20076;-48
2022/03/23 21:14:07;;;;;;;17.98;6.75;;;11.10;99.90;;;;;;20796698;28;20501;-48
2022/03/23 21:24:08;;;;;;;19.15;6.88;;;10.90;99.90;;;;;;20801170;28;20049;-48
2022/03/23 21:34:10;;;;;;;19.33;7.55;;;10.90;99.90;;;;;;20793357;28;20618;-48
2022/03/23 21:44:11;;;;;;;20.55;7.47;;;10.60;99.90;;;;;;20788462;28;20030;-48
2022/03/23 21:54:12;;;;;;;19.23;7.60;;;10.50;99.90;;;;;;20797144;28;20126;-47
2022/03/23 22:04:13;;;;;;;17.95;7.70;;;10.30;99.90;;;;;;20809975;28;20037;-48
2022/03/23 22:14:14;;;;;;;25.42;10.35;;;10.10;99.90;;;;;;20808135;28;20069;-47
2022/03/23 22:24:15;;;;;;;21.65;8.82;;;10.00;99.90;;;;;;20803588;28;20045;-47
2022/03/23 22:34:16;;;;;;;21.00;8.98;;;9.80;99.90;;;;;;20806906;28;20516;-47
2022/03/23 22:44:18;;;;;;;24.15;8.90;;;9.80;99.90;;;;;;20787531;28;20398;-48
2022/03/23 22:54:19;;;;;;;20.02;8.93;;;9.80;99.90;;;;;;20798233;28;20037;-47
2022/03/23 23:04:20;;;;;;;24.85;9.23;;;9.40;99.90;;;;;;20797540;28;20059;-48
2022/03/23 23:14:21;;;;;;;25.60;9.95;;;9.40;99.90;;;;;;20801481;28;20384;-47
2022/03/23 23:24:22;;;;;;;23.40;9.80;;;9.20;99.90;;;;;;20803108;28;20050;-47
2022/03/23 23:34:23;;;;;;;28.65;10.50;;;9.10;99.90;;;;;;20795725;28;20041;-49
2022/03/23 23:44:24;;;;;;;28.40;9.88;;;8.90;99.90;;;;;;20799413;28;20099;-48
2022/03/23 23:54:25;;;;;;;27.83;12.07;;;8.80;99.90;;;;;;20797770;28;20037;-48
